sensor_id;sensor_type;location;lat;lon;timestamp;temperature;humidity
17333;DHT22;8784;50.94667800;7.08448400;2022-08-20T00:00:34;22.70;96.50
17333;DHT22;8784;50.94667800;7.08448400;2022-08-20T00:03:05;22.70;96.60
17333;DHT22;8784;50.94667800;7.08448400;2022-08-20T00:05:36;22.70;96.70
17333;DHT22;8784;50.94667800;7.08448400;2022-08-20T00:08:04;22.70;96.80
17333;DHT22;8784;50.94667800;7.08448400;2022-08-20T00:10:34;22.70;96.80
17333;DHT22;8784;50.94667800;7.08448400;2022-08-20T00:13:01;22.60;96.90
17333;DHT22;8784;50.94667800;7.08448400;2022-08-20T00:15:32;22.60;97.00
17333;DHT22;8784;50.94667800;7.08448400;2022-08-20T00:18:00;22.60;97.10
17333;DHT22;8784;50.94667800;7.08448400;2022-08-20T00:20:32;22.60;97.20
17333;DHT22;8784;50.94667800;7.08448400;2022-08-20T00:23:00;22.60;97.30
17333;DHT22;8784;50.94667800;7.08448400;2022-08-20T00:25:28;22.60;97.30
17333;DHT22;8784;50.94667800;7.08448400;2022-08-20T00:27:55;22.60;97.30
17333;DHT22;8784;50.94667800;7.08448400;2022-08-20T00:30:23;22.60;97.40
17333;DHT22;8784;50.94667800;7.08448400;2022-08-20T00:32:53;22.60;97.40
17333;DHT22;8784;50.94667800;7.08448400;2022-08-20T00:35:23;22.60;97.50
17333;DHT22;8784;50.94667800;7.08448400;2022-08-20T00:37:51;22.50;97.60
17333;DHT22;8784;50.94667800;7.08448400;2022-08-20T00:40:22;22.50;97.80
17333;DHT22;8784;50.94667800;7.08448400;2022-08-20T00:42:52;22.50;97.90
17333;DHT22;8784;50.94667800;7.08448400;2022-08-20T00:45:22;22.50;97.90
17333;DHT22;8784;50.94667800;7.08448400;2022-08-20T00:47:49;22.50;98.00
17333;DHT22;8784;50.94667800;7.08448400;2022-08-20T00:50:19;22.50;98.10
17333;DHT22;8784;50.94667800;7.08448400;2022-08-20T00:52:50;22.50;98.20
17333;DHT22;8784;50.94667800;7.08448400;2022-08-20T00:55:22;22.50;98.30
17333;DHT22;8784;50.94667800;7.08448400;2022-08-20T00:57:53;22.40;98.30
17333;DHT22;8784;50.94667800;7.08448400;2022-08-20T01:00:25;22.40;98.50
17333;DHT22;8784;50.94667800;7.08448400;2022-08-20T01:02:53;22.30;98.50
17333;DHT22;8784;50.94667800;7.08448400;2022-08-20T01:05:21;22.30;98.60
17333;DHT22;8784;50.94667800;7.08448400;2022-08-20T01:07:49;22.30;98.70
17333;DHT22;8784;50.94667800;7.08448400;2022-08-20T01:10:22;22.30;98.70
17333;DHT22;8784;50.94667800;7.08448400;2022-08-20T01:12:51;22.20;98.90
17333;DHT22;8784;50.94667800;7.08448400;2022-08-20T01:15:20;22.20;99.00
17333;DHT22;8784;50.94667800;7.08448400;2022-08-20T01:17:52;22.20;99.10
17333;DHT22;8784;50.94667800;7.08448400;2022-08-20T01:20:26;22.10;99.10
17333;DHT22;8784;50.94667800;7.08448400;2022-08-20T01:22:59;22.20;99.20
17333;DHT22;8784;50.94667800;7.08448400;2022-08-20T01:25:50;22.20;99.30
17333;DHT22;8784;50.94667800;7.08448400;2022-08-20T01:28:21;22.10;99.20
17333;DHT22;8784;50.94667800;7.08448400;2022-08-20T01:30:50;22.10;99.30
17333;DHT22;8784;50.94667800;7.08448400;2022-08-20T01:33:18;22.20;99.30
17333;DHT22;8784;50.94667800;7.08448400;2022-08-20T01:35:45;22.10;99.40
17333;DHT22;8784;50.94667800;7.08448400;2022-08-20T01:38:13;22.10;99.60
17333;DHT22;8784;50.94667800;7.08448400;2022-08-20T01:41:09;22.20;99.50
17333;DHT22;8784;50.94667800;7.08448400;2022-08-20T01:43:39;22.20;99.90
17333;DHT22;8784;50.94667800;7.08448400;2022-08-20T01:46:07;22.20;99.60
17333;DHT22;8784;50.94667800;7.08448400;2022-08-20T01:48:34;22.20;99.60
17333;DHT22;8784;50.94667800;7.08448400;2022-08-20T01:51:07;22.20;99.80
17333;DHT22;8784;50.94667800;7.08448400;2022-08-20T01:53:40;22.20;99.90
17333;DHT22;8784;50.94667800;7.08448400;2022-08-20T01:56:12;22.20;99.90
17333;DHT22;8784;50.94667800;7.08448400;2022-08-20T01:58:43;22.20;99.90
17333;DHT22;8784;50.94667800;7.08448400;2022-08-20T02:01:19;22.10;99.90
17333;DHT22;8784;50.94667800;7.08448400;2022-08-20T02:03:46;22.10;99.90
17333;DHT22;8784;50.94667800;7.08448400;2022-08-20T02:06:13;22.10;99.90
17333;DHT22;8784;50.94667800;7.08448400;2022-08-20T02:08:40;22.10;99.90
17333;DHT22;8784;50.94667800;7.08448400;2022-08-20T02:11:09;22.10;99.90
17333;DHT22;8784;50.94667800;7.08448400;2022-08-20T02:13:37;22.00;99.90
17333;DHT22;8784;50.94667800;7.08448400;2022-08-20T02:16:05;22.00;99.90
17333;DHT22;8784;50.94667800;7.08448400;2022-08-20T02:18:32;22.00;99.90
17333;DHT22;8784;50.94667800;7.08448400;2022-08-20T02:21:00;22.00;99.90
17333;DHT22;8784;50.94667800;7.08448400;2022-08-20T02:23:27;22.00;99.90
17333;DHT22;8784;50.94667800;7.08448400;2022-08-20T02:25:54;22.10;99.90
17333;DHT22;8784;50.94667800;7.08448400;2022-08-20T02:28:22;22.10;99.90
17333;DHT22;8784;50.94667800;7.08448400;2022-08-20T02:30:52;22.20;99.90
17333;DHT22;8784;50.94667800;7.08448400;2022-08-20T02:33:21;22.30;99.90
17333;DHT22;8784;50.94667800;7.08448400;2022-08-20T02:35:49;22.30;99.90
17333;DHT22;8784;50.94667800;7.08448400;2022-08-20T02:38:17;22.40;99.90
17333;DHT22;8784;50.94667800;7.08448400;2022-08-20T02:40:46;22.40;99.80
17333;DHT22;8784;50.94667800;7.08448400;2022-08-20T02:43:14;22.50;99.80
17333;DHT22;8784;50.94667800;7.08448400;2022-08-20T02:45:44;22.50;99.60
17333;DHT22;8784;50.94667800;7.08448400;2022-08-20T02:48:14;22.50;99.60
17333;DHT22;8784;50.94667800;7.08448400;2022-08-20T02:50:46;22.40;99.60
17333;DHT22;8784;50.94667800;7.08448400;2022-08-20T02:53:14;22.40;99.60
17333;DHT22;8784;50.94667800;7.08448400;2022-08-20T02:55:41;22.40;99.50
17333;DHT22;8784;50.94667800;7.08448400;2022-08-20T02:58:08;22.40;99.60
17333;DHT22;8784;50.94667800;7.08448400;2022-08-20T03:00:36;22.50;99.60
17333;DHT22;8784;50.94667800;7.08448400;2022-08-20T03:03:05;22.50;99.50
17333;DHT22;8784;50.94667800;7.08448400;2022-08-20T03:05:32;22.50;99.50
17333;DHT22;8784;50.94667800;7.08448400;2022-08-20T03:08:00;22.50;99.40
17333;DHT22;8784;50.94667800;7.08448400;2022-08-20T03:10:30;22.50;99.40
17333;DHT22;8784;50.94667800;7.08448400;2022-08-20T03:12:59;22.50;99.40
17333;DHT22;8784;50.94667800;7.08448400;2022-08-20T03:15:27;22.50;99.30
17333;DHT22;8784;50.94667800;7.08448400;2022-08-20T03:17:55;22.40;99.20
17333;DHT22;8784;50.94667800;7.08448400;2022-08-20T03:20:25;22.40;99.10
17333;DHT22;8784;50.94667800;7.08448400;2022-08-20T03:22:52;22.30;99.20
17333;DHT22;8784;50.94667800;7.08448400;2022-08-20T03:25:19;22.20;99.30
17333;DHT22;8784;50.94667800;7.08448400;2022-08-20T03:27:46;22.10;99.40
17333;DHT22;8784;50.94667800;7.08448400;2022-08-20T03:30:15;22.00;99.50
17333;DHT22;8784;50.94667800;7.08448400;2022-08-20T03:32:43;21.90;99.60
17333;DHT22;8784;50.94667800;7.08448400;2022-08-20T03:35:12;21.90;99.70
17333;DHT22;8784;50.94667800;7.08448400;2022-08-20T03:37:41;21.80;99.80
17333;DHT22;8784;50.94667800;7.08448400;2022-08-20T03:40:10;21.80;99.90
17333;DHT22;8784;50.94667800;7.08448400;2022-08-20T03:42:37;21.80;99.90
17333;DHT22;8784;50.94667800;7.08448400;2022-08-20T03:45:06;21.70;99.90
17333;DHT22;8784;50.94667800;7.08448400;2022-08-20T03:47:33;21.70;99.90
17333;DHT22;8784;50.94667800;7.08448400;2022-08-20T03:50:01;21.70;99.90
17333;DHT22;8784;50.94667800;7.08448400;2022-08-20T03:52:28;21.70;99.90
17333;DHT22;8784;50.94667800;7.08448400;2022-08-20T03:54:57;21.80;99.90
17333;DHT22;8784;50.94667800;7.08448400;2022-08-20T03:57:24;21.70;99.90
17333;DHT22;8784;50.94667800;7.08448400;2022-08-20T03:59:52;21.60;99.90
17333;DHT22;8784;50.94667800;7.08448400;2022-08-20T04:02:19;21.60;99.90
17333;DHT22;8784;50.94667800;7.08448400;2022-08-20T04:04:46;21.60;99.90
17333;DHT22;8784;50.94667800;7.08448400;2022-08-20T04:07:14;21.60;99.90
17333;DHT22;8784;50.94667800;7.08448400;2022-08-20T04:09:42;21.60;99.90
17333;DHT22;8784;50.94667800;7.08448400;2022-08-20T04:12:10;21.60;99.90
17333;DHT22;8784;50.94667800;7.08448400;2022-08-20T04:14:38;21.50;99.90
17333;DHT22;8784;50.94667800;7.08448400;2022-08-20T04:17:06;21.50;99.90
17333;DHT22;8784;50.94667800;7.08448400;2022-08-20T04:19:34;21.60;99.90
17333;DHT22;8784;50.94667800;7.08448400;2022-08-20T04:22:02;21.60;99.90
17333;DHT22;8784;50.94667800;7.08448400;2022-08-20T04:24:29;21.60;99.90
17333;DHT22;8784;50.94667800;7.08448400;2022-08-20T04:26:56;21.70;99.90
17333;DHT22;8784;50.94667800;7.08448400;2022-08-20T04:29:24;21.80;99.90
17333;DHT22;8784;50.94667800;7.08448400;2022-08-20T04:31:52;21.80;99.90
17333;DHT22;8784;50.94667800;7.08448400;2022-08-20T04:34:20;21.90;99.90
17333;DHT22;8784;50.94667800;7.08448400;2022-08-20T04:36:47;22.00;99.90
17333;DHT22;8784;50.94667800;7.08448400;2022-08-20T04:39:14;22.00;99.90
17333;DHT22;8784;50.94667800;7.08448400;2022-08-20T04:41:42;22.10;99.90
17333;DHT22;8784;50.94667800;7.08448400;2022-08-20T04:44:09;22.10;99.90
17333;DHT22;8784;50.94667800;7.08448400;2022-08-20T04:46:39;22.10;99.90
17333;DHT22;8784;50.94667800;7.08448400;2022-08-20T04:49:06;22.00;99.90
17333;DHT22;8784;50.94667800;7.08448400;2022-08-20T04:51:33;21.90;99.90
17333;DHT22;8784;50.94667800;7.08448400;2022-08-20T04:54:00;21.90;99.90
17333;DHT22;8784;50.94667800;7.08448400;2022-08-20T04:56:30;21.90;99.90
17333;DHT22;8784;50.94667800;7.08448400;2022-08-20T04:58:59;21.80;99.90
17333;DHT22;8784;50.94667800;7.08448400;2022-08-20T05:01:27;21.70;99.90
17333;DHT22;8784;50.94667800;7.08448400;2022-08-20T05:03:56;21.80;99.90
17333;DHT22;8784;50.94667800;7.08448400;2022-08-20T05:06:26;21.70;99.90
17333;DHT22;8784;50.94667800;7.08448400;2022-08-20T05:08:53;21.70;99.90
17333;DHT22;8784;50.94667800;7.08448400;2022-08-20T05:11:21;21.60;99.90
17333;DHT22;8784;50.94667800;7.08448400;2022-08-20T05:13:49;21.40;99.90
17333;DHT22;8784;50.94667800;7.08448400;2022-08-20T05:16:18;21.20;99.90
17333;DHT22;8784;50.94667800;7.08448400;2022-08-20T05:18:46;21.10;99.90
17333;DHT22;8784;50.94667800;7.08448400;2022-08-20T05:21:14;21.00;99.90
17333;DHT22;8784;50.94667800;7.08448400;2022-08-20T05:23:41;21.00;99.90
17333;DHT22;8784;50.94667800;7.08448400;2022-08-20T05:26:08;21.00;99.90
17333;DHT22;8784;50.94667800;7.08448400;2022-08-20T05:28:37;20.90;99.90
17333;DHT22;8784;50.94667800;7.08448400;2022-08-20T05:31:06;20.90;99.90
17333;DHT22;8784;50.94667800;7.08448400;2022-08-20T05:33:35;20.90;99.90
17333;DHT22;8784;50.94667800;7.08448400;2022-08-20T05:36:04;20.80;99.90
17333;DHT22;8784;50.94667800;7.08448400;2022-08-20T05:38:34;20.80;99.90
17333;DHT22;8784;50.94667800;7.08448400;2022-08-20T05:41:01;20.90;99.90
17333;DHT22;8784;50.94667800;7.08448400;2022-08-20T05:43:29;20.90;99.90
17333;DHT22;8784;50.94667800;7.08448400;2022-08-20T05:45:59;20.90;99.90
17333;DHT22;8784;50.94667800;7.08448400;2022-08-20T05:48:27;20.90;99.90
17333;DHT22;8784;50.94667800;7.08448400;2022-08-20T05:50:54;20.90;99.90
17333;DHT22;8784;50.94667800;7.08448400;2022-08-20T05:53:23;20.90;99.90
17333;DHT22;8784;50.94667800;7.08448400;2022-08-20T05:55:52;20.90;99.90
17333;DHT22;8784;50.94667800;7.08448400;2022-08-20T05:58:24;20.90;99.90
17333;DHT22;8784;50.94667800;7.08448400;2022-08-20T06:00:52;20.90;99.90
17333;DHT22;8784;50.94667800;7.08448400;2022-08-20T06:03:20;20.80;99.90
17333;DHT22;8784;50.94667800;7.08448400;2022-08-20T06:06:04;20.80;99.90
17333;DHT22;8784;50.94667800;7.08448400;2022-08-20T06:08:32;20.80;99.90
17333;DHT22;8784;50.94667800;7.08448400;2022-08-20T06:11:00;20.80;99.90
17333;DHT22;8784;50.94667800;7.08448400;2022-08-20T06:13:27;20.70;99.90
17333;DHT22;8784;50.94667800;7.08448400;2022-08-20T06:15:54;20.70;99.90
17333;DHT22;8784;50.94667800;7.08448400;2022-08-20T06:18:22;20.60;99.90
17333;DHT22;8784;50.94667800;7.08448400;2022-08-20T06:20:49;20.60;99.90
17333;DHT22;8784;50.94667800;7.08448400;2022-08-20T06:23:16;20.60;99.90
17333;DHT22;8784;50.94667800;7.08448400;2022-08-20T06:25:44;20.70;99.90
17333;DHT22;8784;50.94667800;7.08448400;2022-08-20T06:28:16;20.60;99.90
17333;DHT22;8784;50.94667800;7.08448400;2022-08-20T06:30:43;20.70;99.90
17333;DHT22;8784;50.94667800;7.08448400;2022-08-20T06:33:10;20.70;99.90
17333;DHT22;8784;50.94667800;7.08448400;2022-08-20T06:35:37;20.70;99.90
17333;DHT22;8784;50.94667800;7.08448400;2022-08-20T06:38:04;20.60;99.90
17333;DHT22;8784;50.94667800;7.08448400;2022-08-20T06:40:31;20.60;99.90
17333;DHT22;8784;50.94667800;7.08448400;2022-08-20T06:43:00;20.60;99.90
17333;DHT22;8784;50.94667800;7.08448400;2022-08-20T06:45:30;20.50;99.90
17333;DHT22;8784;50.94667800;7.08448400;2022-08-20T06:47:59;20.50;99.90
17333;DHT22;8784;50.94667800;7.08448400;2022-08-20T06:50:36;20.50;99.90
17333;DHT22;8784;50.94667800;7.08448400;2022-08-20T06:53:04;20.50;99.90
17333;DHT22;8784;50.94667800;7.08448400;2022-08-20T06:55:32;20.60;99.90
17333;DHT22;8784;50.94667800;7.08448400;2022-08-20T06:58:00;20.50;99.90
17333;DHT22;8784;50.94667800;7.08448400;2022-08-20T07:00:30;20.50;99.90
17333;DHT22;8784;50.94667800;7.08448400;2022-08-20T07:02:58;20.50;99.90
17333;DHT22;8784;50.94667800;7.08448400;2022-08-20T07:05:25;20.50;99.90
17333;DHT22;8784;50.94667800;7.08448400;2022-08-20T07:07:52;20.50;99.90
17333;DHT22;8784;50.94667800;7.08448400;2022-08-20T07:10:20;20.50;99.90
17333;DHT22;8784;50.94667800;7.08448400;2022-08-20T07:12:48;20.60;99.90
17333;DHT22;8784;50.94667800;7.08448400;2022-08-20T07:15:16;20.60;99.90
17333;DHT22;8784;50.94667800;7.08448400;2022-08-20T07:17:50;20.70;99.90
17333;DHT22;8784;50.94667800;7.08448400;2022-08-20T07:20:17;20.70;99.90
17333;DHT22;8784;50.94667800;7.08448400;2022-08-20T07:22:44;20.70;99.90
17333;DHT22;8784;50.94667800;7.08448400;2022-08-20T07:25:14;20.80;99.90
17333;DHT22;8784;50.94667800;7.08448400;2022-08-20T07:27:42;20.80;99.90
17333;DHT22;8784;50.94667800;7.08448400;2022-08-20T07:30:12;20.90;99.90
17333;DHT22;8784;50.94667800;7.08448400;2022-08-20T07:32:58;20.90;99.90
17333;DHT22;8784;50.94667800;7.08448400;2022-08-20T07:35:25;20.90;99.90
17333;DHT22;8784;50.94667800;7.08448400;2022-08-20T07:37:52;20.90;99.90
17333;DHT22;8784;50.94667800;7.08448400;2022-08-20T07:40:22;20.90;99.90
17333;DHT22;8784;50.94667800;7.08448400;2022-08-20T07:42:49;20.90;99.90
17333;DHT22;8784;50.94667800;7.08448400;2022-08-20T07:45:17;20.90;99.90
17333;DHT22;8784;50.94667800;7.08448400;2022-08-20T07:47:45;20.90;99.90
17333;DHT22;8784;50.94667800;7.08448400;2022-08-20T07:50:16;21.00;99.90
17333;DHT22;8784;50.94667800;7.08448400;2022-08-20T07:52:44;21.00;99.90
17333;DHT22;8784;50.94667800;7.08448400;2022-08-20T07:55:14;21.10;99.90
17333;DHT22;8784;50.94667800;7.08448400;2022-08-20T07:57:41;21.20;99.90
17333;DHT22;8784;50.94667800;7.08448400;2022-08-20T08:00:10;21.20;99.90
17333;DHT22;8784;50.94667800;7.08448400;2022-08-20T08:02:38;21.20;99.90
17333;DHT22;8784;50.94667800;7.08448400;2022-08-20T08:05:06;21.20;99.90
17333;DHT22;8784;50.94667800;7.08448400;2022-08-20T08:07:35;21.40;99.90
17333;DHT22;8784;50.94667800;7.08448400;2022-08-20T08:10:05;21.70;99.90
17333;DHT22;8784;50.94667800;7.08448400;2022-08-20T08:12:37;21.90;99.90
17333;DHT22;8784;50.94667800;7.08448400;2022-08-20T08:15:08;22.30;99.90
17333;DHT22;8784;50.94667800;7.08448400;2022-08-20T08:17:36;22.70;99.90
17333;DHT22;8784;50.94667800;7.08448400;2022-08-20T08:20:04;23.10;99.90
17333;DHT22;8784;50.94667800;7.08448400;2022-08-20T08:22:31;23.30;99.90
17333;DHT22;8784;50.94667800;7.08448400;2022-08-20T08:24:59;23.40;99.90
17333;DHT22;8784;50.94667800;7.08448400;2022-08-20T08:27:27;23.40;99.90
17333;DHT22;8784;50.94667800;7.08448400;2022-08-20T08:29:58;23.30;99.90
17333;DHT22;8784;50.94667800;7.08448400;2022-08-20T08:32:25;23.20;99.90
17333;DHT22;8784;50.94667800;7.08448400;2022-08-20T08:34:53;23.00;99.90
17333;DHT22;8784;50.94667800;7.08448400;2022-08-20T08:37:19;23.00;99.90
17333;DHT22;8784;50.94667800;7.08448400;2022-08-20T08:39:46;22.80;99.90
17333;DHT22;8784;50.94667800;7.08448400;2022-08-20T08:42:24;22.70;99.90
17333;DHT22;8784;50.94667800;7.08448400;2022-08-20T08:44:52;22.60;99.90
17333;DHT22;8784;50.94667800;7.08448400;2022-08-20T08:47:26;22.60;99.90
17333;DHT22;8784;50.94667800;7.08448400;2022-08-20T08:49:54;22.60;99.90
17333;DHT22;8784;50.94667800;7.08448400;2022-08-20T08:52:24;22.60;99.90
17333;DHT22;8784;50.94667800;7.08448400;2022-08-20T08:54:54;22.60;99.90
17333;DHT22;8784;50.94667800;7.08448400;2022-08-20T08:57:24;22.60;99.90
17333;DHT22;8784;50.94667800;7.08448400;2022-08-20T08:59:54;22.50;99.90
17333;DHT22;8784;50.94667800;7.08448400;2022-08-20T09:02:24;22.50;99.90
17333;DHT22;8784;50.94667800;7.08448400;2022-08-20T09:04:52;22.50;99.90
17333;DHT22;8784;50.94667800;7.08448400;2022-08-20T09:07:20;22.50;99.90
17333;DHT22;8784;50.94667800;7.08448400;2022-08-20T09:09:50;22.50;99.90
17333;DHT22;8784;50.94667800;7.08448400;2022-08-20T09:12:23;22.50;99.90
17333;DHT22;8784;50.94667800;7.08448400;2022-08-20T09:14:52;22.60;99.90
17333;DHT22;8784;50.94667800;7.08448400;2022-08-20T09:17:21;22.60;99.90
17333;DHT22;8784;50.94667800;7.08448400;2022-08-20T09:19:48;22.60;99.90
17333;DHT22;8784;50.94667800;7.08448400;2022-08-20T09:22:19;22.60;99.90
17333;DHT22;8784;50.94667800;7.08448400;2022-08-20T09:24:46;22.50;99.90
17333;DHT22;8784;50.94667800;7.08448400;2022-08-20T09:27:13;22.50;99.90
17333;DHT22;8784;50.94667800;7.08448400;2022-08-20T09:29:42;22.50;99.90
17333;DHT22;8784;50.94667800;7.08448400;2022-08-20T09:32:11;22.50;99.90
17333;DHT22;8784;50.94667800;7.08448400;2022-08-20T09:34:41;22.60;99.90
17333;DHT22;8784;50.94667800;7.08448400;2022-08-20T09:37:09;22.70;99.90
17333;DHT22;8784;50.94667800;7.08448400;2022-08-20T09:39:36;22.80;99.90
17333;DHT22;8784;50.94667800;7.08448400;2022-08-20T09:42:08;22.90;99.90
17333;DHT22;8784;50.94667800;7.08448400;2022-08-20T09:44:35;22.90;99.90
17333;DHT22;8784;50.94667800;7.08448400;2022-08-20T09:47:03;22.90;99.90
17333;DHT22;8784;50.94667800;7.08448400;2022-08-20T09:49:31;22.80;99.90
17333;DHT22;8784;50.94667800;7.08448400;2022-08-20T09:51:59;22.90;99.90
17333;DHT22;8784;50.94667800;7.08448400;2022-08-20T09:54:27;22.90;99.90
17333;DHT22;8784;50.94667800;7.08448400;2022-08-20T09:56:55;22.90;99.90
17333;DHT22;8784;50.94667800;7.08448400;2022-08-20T09:59:23;22.90;99.90
17333;DHT22;8784;50.94667800;7.08448400;2022-08-20T10:01:50;22.90;99.90
17333;DHT22;8784;50.94667800;7.08448400;2022-08-20T10:04:18;23.00;99.90
17333;DHT22;8784;50.94667800;7.08448400;2022-08-20T10:06:45;23.00;99.90
17333;DHT22;8784;50.94667800;7.08448400;2022-08-20T10:09:12;23.00;99.90
17333;DHT22;8784;50.94667800;7.08448400;2022-08-20T10:11:39;23.00;99.90
17333;DHT22;8784;50.94667800;7.08448400;2022-08-20T10:14:06;23.00;99.90
17333;DHT22;8784;50.94667800;7.08448400;2022-08-20T10:16:34;23.10;99.90
17333;DHT22;8784;50.94667800;7.08448400;2022-08-20T10:19:01;23.20;99.90
17333;DHT22;8784;50.94667800;7.08448400;2022-08-20T10:21:30;23.20;99.90
17333;DHT22;8784;50.94667800;7.08448400;2022-08-20T10:23:58;23.30;99.90
17333;DHT22;8784;50.94667800;7.08448400;2022-08-20T10:26:25;23.40;99.90
17333;DHT22;8784;50.94667800;7.08448400;2022-08-20T10:28:52;23.40;99.90
17333;DHT22;8784;50.94667800;7.08448400;2022-08-20T10:31:19;23.50;99.90
17333;DHT22;8784;50.94667800;7.08448400;2022-08-20T10:33:46;23.70;99.90
17333;DHT22;8784;50.94667800;7.08448400;2022-08-20T10:36:15;24.00;99.70
17333;DHT22;8784;50.94667800;7.08448400;2022-08-20T10:38:44;24.30;99.30
17333;DHT22;8784;50.94667800;7.08448400;2022-08-20T10:41:13;24.60;98.80
17333;DHT22;8784;50.94667800;7.08448400;2022-08-20T10:43:39;24.90;98.40
17333;DHT22;8784;50.94667800;7.08448400;2022-08-20T10:46:06;25.10;98.10
17333;DHT22;8784;50.94667800;7.08448400;2022-08-20T10:48:34;25.40;97.90
17333;DHT22;8784;50.94667800;7.08448400;2022-08-20T10:51:01;25.60;97.40
17333;DHT22;8784;50.94667800;7.08448400;2022-08-20T10:53:28;26.00;96.80
17333;DHT22;8784;50.94667800;7.08448400;2022-08-20T10:55:57;26.30;96.40
17333;DHT22;8784;50.94667800;7.08448400;2022-08-20T10:58:25;26.50;96.30
17333;DHT22;8784;50.94667800;7.08448400;2022-08-20T11:00:52;26.50;95.90
17333;DHT22;8784;50.94667800;7.08448400;2022-08-20T11:03:20;26.40;95.40
17333;DHT22;8784;50.94667800;7.08448400;2022-08-20T11:05:46;26.30;95.00
17333;DHT22;8784;50.94667800;7.08448400;2022-08-20T11:08:13;26.30;95.00
17333;DHT22;8784;50.94667800;7.08448400;2022-08-20T11:10:40;26.30;94.80
17333;DHT22;8784;50.94667800;7.08448400;2022-08-20T11:13:09;26.50;94.90
17333;DHT22;8784;50.94667800;7.08448400;2022-08-20T11:15:38;26.70;94.80
17333;DHT22;8784;50.94667800;7.08448400;2022-08-20T11:18:06;26.70;94.40
17333;DHT22;8784;50.94667800;7.08448400;2022-08-20T11:20:34;26.70;94.10
17333;DHT22;8784;50.94667800;7.08448400;2022-08-20T11:23:01;26.60;94.00
17333;DHT22;8784;50.94667800;7.08448400;2022-08-20T11:25:29;26.40;94.10
17333;DHT22;8784;50.94667800;7.08448400;2022-08-20T11:27:56;26.20;93.80
17333;DHT22;8784;50.94667800;7.08448400;2022-08-20T11:30:27;26.00;93.80
17333;DHT22;8784;50.94667800;7.08448400;2022-08-20T11:32:54;26.00;93.80
17333;DHT22;8784;50.94667800;7.08448400;2022-08-20T11:35:22;26.00;93.70
17333;DHT22;8784;50.94667800;7.08448400;2022-08-20T11:37:49;25.90;93.70
17333;DHT22;8784;50.94667800;7.08448400;2022-08-20T11:40:16;25.80;93.70
17333;DHT22;8784;50.94667800;7.08448400;2022-08-20T11:42:44;25.70;93.70
17333;DHT22;8784;50.94667800;7.08448400;2022-08-20T11:45:12;25.60;93.60
17333;DHT22;8784;50.94667800;7.08448400;2022-08-20T11:47:41;25.50;93.60
17333;DHT22;8784;50.94667800;7.08448400;2022-08-20T11:50:12;25.40;93.50
17333;DHT22;8784;50.94667800;7.08448400;2022-08-20T11:52:40;25.50;93.70
17333;DHT22;8784;50.94667800;7.08448400;2022-08-20T11:55:09;25.50;93.60
17333;DHT22;8784;50.94667800;7.08448400;2022-08-20T11:57:40;25.60;93.40
17333;DHT22;8784;50.94667800;7.08448400;2022-08-20T12:00:11;25.60;93.00
17333;DHT22;8784;50.94667800;7.08448400;2022-08-20T12:02:41;25.60;92.80
17333;DHT22;8784;50.94667800;7.08448400;2022-08-20T12:05:09;25.50;92.90
17333;DHT22;8784;50.94667800;7.08448400;2022-08-20T12:07:36;25.50;93.30
17333;DHT22;8784;50.94667800;7.08448400;2022-08-20T12:10:04;25.60;92.90
17333;DHT22;8784;50.94667800;7.08448400;2022-08-20T12:12:32;25.60;92.70
17333;DHT22;8784;50.94667800;7.08448400;2022-08-20T12:14:59;25.70;92.50
17333;DHT22;8784;50.94667800;7.08448400;2022-08-20T12:17:28;25.70;92.50
17333;DHT22;8784;50.94667800;7.08448400;2022-08-20T12:20:01;25.70;92.20
17333;DHT22;8784;50.94667800;7.08448400;2022-08-20T12:22:28;25.70;92.20
17333;DHT22;8784;50.94667800;7.08448400;2022-08-20T12:24:56;25.60;92.00
17333;DHT22;8784;50.94667800;7.08448400;2022-08-20T12:27:25;25.50;92.10
17333;DHT22;8784;50.94667800;7.08448400;2022-08-20T12:29:54;25.50;92.10
17333;DHT22;8784;50.94667800;7.08448400;2022-08-20T12:32:23;25.60;92.20
17333;DHT22;8784;50.94667800;7.08448400;2022-08-20T12:34:51;25.50;92.10
17333;DHT22;8784;50.94667800;7.08448400;2022-08-20T12:37:21;25.60;91.80
17333;DHT22;8784;50.94667800;7.08448400;2022-08-20T12:39:51;25.70;91.80
17333;DHT22;8784;50.94667800;7.08448400;2022-08-20T12:42:20;25.80;91.50
17333;DHT22;8784;50.94667800;7.08448400;2022-08-20T12:44:48;25.90;91.20
17333;DHT22;8784;50.94667800;7.08448400;2022-08-20T12:47:18;26.00;90.80
17333;DHT22;8784;50.94667800;7.08448400;2022-08-20T12:49:47;26.10;90.70
17333;DHT22;8784;50.94667800;7.08448400;2022-08-20T12:52:16;26.20;90.50
17333;DHT22;8784;50.94667800;7.08448400;2022-08-20T12:54:45;26.30;90.30
17333;DHT22;8784;50.94667800;7.08448400;2022-08-20T12:57:14;26.40;90.20
17333;DHT22;8784;50.94667800;7.08448400;2022-08-20T12:59:41;26.60;89.40
17333;DHT22;8784;50.94667800;7.08448400;2022-08-20T13:02:08;26.60;88.90
17333;DHT22;8784;50.94667800;7.08448400;2022-08-20T13:04:35;26.70;88.30
17333;DHT22;8784;50.94667800;7.08448400;2022-08-20T13:07:03;26.80;87.40
17333;DHT22;8784;50.94667800;7.08448400;2022-08-20T13:09:31;26.80;86.40
17333;DHT22;8784;50.94667800;7.08448400;2022-08-20T13:12:00;26.80;85.60
17333;DHT22;8784;50.94667800;7.08448400;2022-08-20T13:14:27;26.90;85.50
17333;DHT22;8784;50.94667800;7.08448400;2022-08-20T13:16:55;26.90;85.00
17333;DHT22;8784;50.94667800;7.08448400;2022-08-20T13:19:24;27.00;84.50
17333;DHT22;8784;50.94667800;7.08448400;2022-08-20T13:21:51;27.00;83.70
17333;DHT22;8784;50.94667800;7.08448400;2022-08-20T13:24:18;27.00;83.30
17333;DHT22;8784;50.94667800;7.08448400;2022-08-20T13:26:46;27.00;83.10
17333;DHT22;8784;50.94667800;7.08448400;2022-08-20T13:29:15;27.00;82.90
17333;DHT22;8784;50.94667800;7.08448400;2022-08-20T13:31:42;27.10;82.60
17333;DHT22;8784;50.94667800;7.08448400;2022-08-20T13:34:09;27.10;82.30
17333;DHT22;8784;50.94667800;7.08448400;2022-08-20T13:36:36;27.10;82.50
17333;DHT22;8784;50.94667800;7.08448400;2022-08-20T13:39:05;27.20;81.80
17333;DHT22;8784;50.94667800;7.08448400;2022-08-20T13:41:32;27.30;81.70